Time;durP1;ratioP1;P1;durP2;ratioP2;P2;SDS_P1;SDS_P2;PMS_P1;PMS_P2;Temp;Humidity;BMP_temperature;BMP_pressure;BME280_temperature;BME280_humidity;BME280_pressure;Samples;Min_cycle;Max_cycle;Signal;HPM_P1;HPM_P2
2023/10/11 04:22:33;;;;;;;9.32;4.28;;;;;;;10.16;100.00;100462.13;5109898;27;20113;-67
2023/10/11 04:25:09;;;;;;;11.35;5.35;;;;;;;10.18;100.00;100462.81;5109773;28;20042;-67
2023/10/11 04:30:17;;;;;;;8.88;4.65;;;;;;;10.17;100.00;100468.28;5089449;28;20067;-66
2023/10/11 04:32:45;;;;;;;10.60;4.75;;;;;;;10.18;100.00;100459.31;5089338;28;20481;-66
2023/10/11 04:35:36;;;;;;;7.93;4.28;;;;;;;10.13;100.00;100462.47;5089148;28;20391;-66
2023/10/11 04:38:02;;;;;;;11.25;4.40;;;;;;;10.16;100.00;100463.94;5089263;28;20036;-66
2023/10/11 04:45:50;;;;;;;9.55;4.85;;;;;;;10.17;100.00;100465.59;5089200;28;20032;-66
2023/10/11 04:48:29;;;;;;;;;;;;;;;10.15;100.00;100467.63;5089418;28;20115;-65
2023/10/11 04:50:55;;;;;;;11.18;5.97;;;;;;;10.14;100.00;100460.63;5089027;28;19946;-65
2023/10/11 04:53:21;;;;;;;10.63;5.95;;;;;;;10.15;100.00;100470.28;5088670;28;20044;-65
2023/10/11 04:58:54;;;;;;;10.25;4.30;;;;;;;10.10;100.00;100472.59;5088845;28;20070;-65
2023/10/11 05:01:22;;;;;;;10.07;5.35;;;;;;;10.13;100.00;100466.97;5088746;28;20118;-66
2023/10/11 05:03:59;;;;;;;7.63;4.45;;;;;;;10.11;100.00;100475.13;5088570;28;20028;-66
2023/10/11 05:06:31;;;;;;;8.82;3.85;;;;;;;10.07;100.00;100479.91;5088780;28;20458;-66
2023/10/11 05:09:12;;;;;;;8.55;4.38;;;;;;;10.04;100.00;100482.06;5088646;28;20787;-66
2023/10/11 05:11:43;;;;;;;9.52;4.38;;;;;;;10.03;100.00;100473.25;5088528;28;20039;-65
2023/10/11 05:16:59;;;;;;;7.75;3.97;;;;;;;9.99;100.00;100481.75;5088462;28;20032;-65
2023/10/11 05:19:26;;;;;;;9.52;4.72;;;;;;;10.01;100.00;100480.56;5088437;28;20124;-66
2023/10/11 05:21:53;;;;;;;7.05;3.78;;;;;;;9.98;100.00;100480.91;5088134;28;20035;-66
2023/10/11 05:27:35;;;;;;;9.35;4.68;;;;;;;9.98;100.00;100477.44;5088266;28;20490;-66
2023/10/11 05:32:42;;;;;;;8.50;4.90;;;;;;;9.97;100.00;100465.91;5080433;28;20162;-66
2023/10/11 05:51:19;;;;;;;8.77;4.38;;;;;;;9.89;100.00;100470.41;5074390;28;20451;-66
2023/10/11 05:53:49;;;;;;;6.55;3.90;;;;;;;9.90;100.00;100464.09;5074119;28;20039;-65
2023/10/11 05:56:23;;;;;;;10.02;4.28;;;;;;;9.92;100.00;100470.09;5074164;28;20040;-66
2023/10/11 05:58:53;;;;;;;8.82;4.28;;;;;;;9.95;100.00;100464.44;5074313;28;20049;-66
2023/10/11 06:01:22;;;;;;;10.35;5.35;;;;;;;9.89;100.00;100471.22;5074172;28;20441;-66
2023/10/11 06:03:52;;;;;;;8.48;4.65;;;;;;;9.94;100.00;100468.91;5073816;28;20032;-65
2023/10/11 06:06:24;;;;;;;7.20;4.63;;;;;;;9.98;100.00;100467.59;5074047;28;20040;-66
2023/10/11 06:08:59;;;;;;;6.78;4.40;;;;;;;10.04;100.00;100468.75;5074134;28;20123;-65
2023/10/11 06:11:29;;;;;;;7.60;4.13;;;;;;;10.05;100.00;100471.28;5074017;28;20063;-64
2023/10/11 06:14:04;;;;;;;10.07;4.55;;;;;;;10.07;100.00;100465.78;5073663;28;20051;-65
2023/10/11 06:16:36;;;;;;;6.45;3.78;;;;;;;10.11;100.00;100467.13;5073816;28;20040;-66
2023/10/11 06:19:16;;;;;;;10.75;5.05;;;;;;;10.17;100.00;100479.78;5073875;28;20040;-59
2023/10/11 06:21:56;;;;;;;8.55;3.70;;;;;;;10.18;100.00;100480.63;5073627;28;20093;-54
2023/10/11 06:24:35;;;;;;;10.30;5.18;;;;;;;10.20;100.00;100481.28;5073490;28;20047;-55
2023/10/11 06:29:45;;;;;;;10.23;4.80;;;;;;;10.26;100.00;100485.97;5073573;28;20056;-54
2023/10/11 06:32:11;;;;;;;7.82;4.30;;;;;;;10.26;100.00;100488.63;5073684;28;20037;-55
2023/10/11 06:34:37;;;;;;;7.55;3.80;;;;;;;10.30;100.00;100482.81;5073265;28;20044;-58
2023/10/11 06:37:06;;;;;;;7.47;4.07;;;;;;;10.36;100.00;100485.78;5073320;28;20441;-54
2023/10/11 06:42:25;;;;;;;10.45;4.75;;;;;;;10.45;100.00;100482.97;5073282;28;20060;-54
2023/10/11 06:44:57;;;;;;;10.75;4.57;;;;;;;10.52;100.00;100481.31;5072094;28;20086;-57
2023/10/11 06:47:24;;;;;;;7.63;4.60;;;;;;;10.62;100.00;100493.63;5073093;28;20040;-53
2023/10/11 06:49:54;;;;;;;12.35;4.97;;;;;;;10.73;100.00;100493.28;5073210;28;20037;-55
2023/10/11 06:52:30;;;;;;;9.95;4.88;;;;;;;10.86;100.00;100494.44;5073111;28;20036;-53
2023/10/11 06:57:41;;;;;;;8.32;4.70;;;;;;;11.25;100.00;100501.66;5073106;28;20348;-55
2023/10/11 07:00:24;;;;;;;9.32;4.82;;;;;;;11.45;100.00;100512.78;5072911;28;20109;-57
2023/10/11 07:02:55;;;;;;;12.18;5.13;;;;;;;11.57;100.00;100514.06;5072900;28;20044;-54
2023/10/11 07:05:25;;;;;;;11.57;4.68;;;;;;;11.73;100.00;100506.97;5072632;28;20112;-53
2023/10/11 07:07:53;;;;;;;15.93;5.00;;;;;;;11.97;100.00;100512.22;5072930;28;20506;-57
2023/10/11 07:10:34;;;;;;;8.10;4.15;;;;;;;12.05;100.00;100509.50;5072752;28;20036;-55
2023/10/11 07:13:05;;;;;;;9.07;4.65;;;;;;;12.16;100.00;100522.47;5072752;28;20098;-56
2023/10/11 07:15:38;;;;;;;10.30;4.75;;;;;;;12.28;100.00;100524.72;5072474;28;20041;-56
2023/10/11 07:18:12;;;;;;;8.63;4.60;;;;;;;12.36;100.00;100513.97;5072825;28;20380;-53
2023/10/11 07:20:49;;;;;;;9.07;4.97;;;;;;;12.46;100.00;100523.44;5072318;28;20467;-56
2023/10/11 07:23:20;;;;;;;9.70;4.32;;;;;;;12.59;100.00;100530.00;5072417;28;20602;-58
2023/10/11 07:25:48;;;;;;;10.10;4.40;;;;;;;12.76;100.00;100528.84;5071763;28;20124;-54
2023/10/11 07:28:18;;;;;;;7.22;4.20;;;;;;;12.85;100.00;100532.31;5072103;28;20040;-54
2023/10/11 07:30:44;;;;;;;6.40;3.70;;;;;;;13.04;100.00;100529.94;5072062;28;20028;-58
2023/10/11 07:33:12;;;;;;;9.43;4.57;;;;;;;13.13;100.00;100533.34;5069251;28;20024;-54
2023/10/11 07:35:46;;;;;;;7.65;4.13;;;;;;;13.22;100.00;100536.78;5071962;28;20036;-55
2023/10/11 07:38:14;;;;;;;11.35;4.30;;;;;;;13.36;100.00;100535.97;5069386;28;20033;-55
2023/10/11 07:40:46;;;;;;;9.15;4.68;;;;;;;13.52;100.00;100540.31;5071880;28;20040;-56
2023/10/11 07:43:16;;;;;;;10.68;4.47;;;;;;;13.65;100.00;100543.16;5068976;28;20036;-57
2023/10/11 07:45:47;;;;;;;8.55;4.70;;;;;;;13.73;100.00;100553.78;5071613;28;20036;-53
2023/10/11 07:48:16;;;;;;;9.43;3.83;;;;;;;13.87;100.00;100559.28;5069404;28;20502;-51
2023/10/11 07:50:42;;;;;;;8.80;3.67;;;;;;;13.98;100.00;100564.19;5071570;28;20044;-53
2023/10/11 07:53:13;;;;;;;8.15;3.78;;;;;;;14.19;100.00;100552.66;5071481;28;20028;-55
2023/10/11 07:55:45;;;;;;;10.38;4.45;;;;;;;14.46;100.00;100545.72;5071450;28;20119;-51
2023/10/11 07:58:11;;;;;;;8.30;4.15;;;;;;;14.56;98.91;100543.59;5068976;28;20110;-54
2023/10/11 08:00:41;;;;;;;8.05;4.25;;;;;;;14.73;97.32;100544.16;5071660;28;20079;-53
2023/10/11 08:03:08;;;;;;;12.15;4.60;;;;;;;14.84;97.31;100540.97;5071537;28;20131;-56
2023/10/11 08:05:45;;;;;;;8.57;4.00;;;;;;;15.10;93.15;100532.28;5071362;28;20107;-53
2023/10/11 08:08:13;;;;;;;7.65;3.80;;;;;;;15.08;94.45;100534.34;5069004;28;20372;-54
2023/10/11 08:10:44;;;;;;;6.75;4.00;;;;;;;15.24;94.77;100536.72;5071494;28;20037;-53
2023/10/11 08:13:23;;;;;;;11.75;4.10;;;;;;;15.31;93.13;100537.56;5071476;28;20060;-56
2023/10/11 08:15:59;;;;;;;7.57;3.85;;;;;;;15.37;92.91;100535.97;5071446;28;20028;-51
2023/10/11 08:18:27;;;;;;;12.15;4.25;;;;;;;15.53;91.98;100535.66;5071183;28;20182;-54
2023/10/11 08:20:52;;;;;;;7.45;3.83;;;;;;;15.70;90.31;100530.81;5071380;28;20040;-52
2023/10/11 08:23:28;;;;;;;7.60;3.75;;;;;;;15.78;88.23;100521.75;5071045;28;20032;-54
2023/10/11 08:25:59;;;;;;;6.75;3.65;;;;;;;16.09;86.34;100524.75;5071326;28;20402;-54
2023/10/11 08:28:34;;;;;;;9.05;3.60;;;;;;;16.21;84.08;100525.81;5069322;28;20041;-54
2023/10/11 08:31:00;;;;;;;8.45;4.05;;;;;;;16.38;83.90;100531.66;5066831;28;20040;-56
2023/10/11 08:33:30;;;;;;;11.27;4.30;;;;;;;16.42;83.11;100535.56;5070959;28;20047;-57
2023/10/11 08:35:56;;;;;;;9.40;3.75;;;;;;;16.54;81.79;100533.94;5070838;28;20029;-56
2023/10/11 08:38:25;;;;;;;7.22;3.90;;;;;;;16.61;81.93;100536.63;5071282;28;20051;-54
2023/10/11 08:40:58;;;;;;;8.60;3.63;;;;;;;16.88;77.68;100526.72;5071156;28;20028;-56
2023/10/11 08:43:25;;;;;;;10.15;3.90;;;;;;;17.13;76.43;100535.00;5070933;28;20036;-55
2023/10/11 08:46:00;;;;;;;7.75;4.10;;;;;;;17.17;76.53;100528.16;5071327;28;20502;-56
2023/10/11 08:48:27;;;;;;;6.63;3.55;;;;;;;17.34;76.60;100539.31;5068131;28;20090;-53
2023/10/11 08:50:55;;;;;;;8.95;3.90;;;;;;;17.46;75.78;100536.81;5071117;28;20033;-56
2023/10/11 08:53:22;;;;;;;8.77;3.33;;;;;;;17.56;74.15;100526.44;5068267;28;20036;-54
2023/10/11 08:55:56;;;;;;;6.35;3.35;;;;;;;17.75;74.06;100528.25;5071169;28;20041;-55
2023/10/11 08:58:27;;;;;;;9.07;3.72;;;;;;;17.96;71.75;100535.22;5071514;28;20119;-57
2023/10/11 09:00:58;;;;;;;8.82;3.80;;;;;;;17.98;70.69;100525.03;5071466;28;20041;-56
2023/10/11 09:03:26;;;;;;;10.90;4.05;;;;;;;18.10;73.22;100520.63;5071130;28;20039;-56
2023/10/11 09:06:01;;;;;;;;;;;;;;;18.27;70.85;100529.03;5071664;28;20495;-52
2023/10/11 09:08:31;;;;;;;13.57;3.28;;;;;;;18.43;69.47;100523.09;5073809;28;19965;-54
2023/10/11 09:11:05;;;;;;;10.30;3.45;;;;;;;18.54;69.59;100521.59;5074798;28;20404;-55
2023/10/11 09:13:36;;;;;;;8.15;3.90;;;;;;;18.56;70.39;100518.66;5074887;28;20063;-54
2023/10/11 09:16:08;;;;;;;10.73;3.75;;;;;;;18.86;68.31;100517.00;5075048;28;20039;-57
2023/10/11 09:18:34;;;;;;;12.82;4.25;;;;;;;19.00;66.91;100511.50;5075134;28;20094;-53
2023/10/11 09:21:09;;;;;;;8.15;3.30;;;;;;;19.15;66.31;100511.94;5074928;28;20115;-56
2023/10/11 09:23:39;;;;;;;12.15;4.40;;;;;;;19.23;64.33;100517.91;5074729;28;20127;-55
2023/10/11 09:26:08;;;;;;;8.65;3.55;;;;;;;19.59;62.60;100510.06;5074617;28;20512;-58
2023/10/11 09:28:33;;;;;;;15.57;4.55;;;;;;;19.81;61.00;100513.94;5074842;28;20030;-57
2023/10/11 09:31:21;;;;;;;9.98;4.07;;;;;;;20.01;61.45;100511.78;5074649;28;20402;-54
2023/10/11 09:33:51;;;;;;;7.13;3.53;;;;;;;20.17;59.31;100513.03;5074542;28;20479;-52
2023/10/11 09:36:20;;;;;;;14.65;3.70;;;;;;;20.41;58.78;100523.91;5074703;28;20043;-53
2023/10/11 09:38:54;;;;;;;9.23;3.83;;;;;;;20.65;56.81;100520.25;5074719;28;20029;-51
2023/10/11 09:41:23;;;;;;;7.63;3.85;;;;;;;20.76;59.81;100526.75;5074669;28;20037;-53
2023/10/11 09:43:48;;;;;;;7.18;3.05;;;;;;;20.91;57.93;100521.69;5074379;28;20048;-55
2023/10/11 09:46:14;;;;;;;7.90;4.03;;;;;;;21.33;55.28;100518.91;5074437;28;20052;-51
2023/10/11 09:48:42;;;;;;;9.73;3.65;;;;;;;21.81;55.35;100512.31;5074479;28;20036;-55
2023/10/11 09:51:14;;;;;;;7.43;3.75;;;;;;;22.36;52.28;100511.75;5074273;28;20433;-51
2023/10/11 09:53:49;;;;;;;7.90;3.58;;;;;;;22.96;51.14;100516.59;5074209;28;20044;-52
2023/10/11 09:56:35;;;;;;;14.85;3.83;;;;;;;23.35;50.27;100509.28;5074294;28;20036;-50
2023/10/11 09:59:22;;;;;;;8.75;3.45;;;;;;;24.13;49.63;100517.31;5074370;28;20055;-53
2023/10/11 10:01:56;;;;;;;;;;;;;;;24.80;47.73;100517.69;5074791;28;20089;-51
2023/10/11 10:04:52;;;;;;;8.70;3.80;;;;;;;25.35;45.69;100516.41;5074001;28;19919;-52
2023/10/11 10:07:25;;;;;;;9.52;3.40;;;;;;;25.89;44.31;100515.34;5074011;28;20486;-53
2023/10/11 10:09:59;;;;;;;12.40;4.05;;;;;;;26.41;43.77;100511.66;5074267;28;20506;-53
2023/10/11 10:12:31;;;;;;;8.02;3.47;;;;;;;26.57;43.54;100505.09;5073957;28;20064;-51
2023/10/11 10:15:15;;;;;;;8.38;3.67;;;;;;;26.96;42.36;100507.25;5073767;28;20070;-52
2023/10/11 10:18:03;;;;;;;16.50;3.95;;;;;;;27.16;43.42;100509.97;5073975;28;20040;-54
2023/10/11 10:20:28;;;;;;;13.57;3.55;;;;;;;27.58;40.03;100514.22;5073805;28;20048;-53
2023/10/11 10:23:17;;;;;;;5.78;3.13;;;;;;;27.76;39.45;100518.28;5073797;28;20109;-51
2023/10/11 10:25:48;;;;;;;7.15;3.00;;;;;;;28.15;39.20;100510.13;5073766;28;20038;-53
2023/10/11 10:28:32;;;;;;;8.18;3.42;;;;;;;28.66;39.10;100510.59;5073626;28;20063;-52
2023/10/11 10:31:21;;;;;;;10.20;3.88;;;;;;;28.68;39.42;100502.06;5073651;28;20064;-50
2023/10/11 10:33:51;;;;;;;13.13;3.67;;;;;;;29.14;37.04;100509.88;5073065;28;20491;-51
2023/10/11 10:36:28;;;;;;;11.90;4.85;;;;;;;28.98;36.39;100505.69;5073244;28;20380;-50
2023/10/11 10:39:00;;;;;;;12.48;3.97;;;;;;;29.12;35.93;100498.41;5073484;28;20123;-53
2023/10/11 10:41:33;;;;;;;12.50;3.88;;;;;;;29.68;36.51;100503.28;5073578;28;20028;-54
2023/10/11 10:44:12;;;;;;;16.02;4.53;;;;;;;30.13;34.04;100498.28;5073192;28;20037;-50
2023/10/11 10:46:49;;;;;;;8.32;3.85;;;;;;;30.64;35.64;100481.78;5073183;28;20411;-53
2023/10/11 10:49:17;;;;;;;10.77;4.18;;;;;;;30.56;35.49;100476.16;5088408;28;20037;-52
2023/10/11 10:51:47;;;;;;;9.45;3.60;;;;;;;31.00;33.62;100472.94;5073239;28;20028;-51
2023/10/11 10:54:13;;;;;;;9.65;3.90;;;;;;;31.32;33.80;100474.81;5072720;28;20036;-52
2023/10/11 10:56:46;;;;;;;10.57;4.57;;;;;;;31.39;32.20;100475.22;5072898;28;20492;-52
2023/10/11 10:59:14;;;;;;;12.45;4.13;;;;;;;31.85;32.07;100474.25;5072832;28;20037;-50
2023/10/11 11:01:46;;;;;;;10.32;3.50;;;;;;;31.67;31.83;100458.66;5072762;28;20391;-52
2023/10/11 11:04:13;;;;;;;11.05;4.30;;;;;;;31.66;32.11;100451.53;5072618;28;20032;-49
2023/10/11 11:06:39;;;;;;;9.90;3.80;;;;;;;31.45;32.58;100443.72;5072554;28;20399;-51
2023/10/11 11:09:13;;;;;;;9.00;3.97;;;;;;;31.91;33.99;100441.91;5072481;28;20049;-49
2023/10/11 11:11:39;;;;;;;12.15;4.03;;;;;;;32.11;32.37;100442.22;5072261;28;20440;-55
2023/10/11 11:14:09;;;;;;;6.73;3.80;;;;;;;31.78;31.92;100438.88;5072238;28;20090;-55
2023/10/11 11:16:39;;;;;;;11.40;4.20;;;;;;;32.04;31.88;100432.78;5072415;28;20127;-51
2023/10/11 11:19:18;;;;;;;11.30;3.70;;;;;;;31.82;31.60;100439.06;5072547;28;20086;-54
2023/10/11 11:21:46;;;;;;;8.70;3.58;;;;;;;32.55;29.88;100432.34;5072235;28;20047;-53
2023/10/11 11:24:34;;;;;;;12.18;4.05;;;;;;;32.33;31.83;100432.34;5072018;28;20024;-53
2023/10/11 11:27:00;;;;;;;13.80;4.05;;;;;;;32.52;30.39;100437.66;5071988;28;20397;-54
2023/10/11 11:29:31;;;;;;;11.88;4.32;;;;;;;32.93;30.77;100424.47;5071883;28;20033;-54
2023/10/11 11:32:00;;;;;;;9.73;4.03;;;;;;;33.17;29.61;100423.22;5071197;28;20041;-55
2023/10/11 11:34:33;;;;;;;8.93;3.65;;;;;;;33.02;29.41;100426.44;5070518;28;20032;-57
2023/10/11 11:37:04;;;;;;;11.57;3.88;;;;;;;33.67;29.62;100420.09;5071767;28;20036;-59
2023/10/11 11:42:07;;;;;;;12.50;4.15;;;;;;;33.07;29.26;100407.78;5071868;28;20051;-56
2023/10/11 11:44:33;;;;;;;12.20;4.28;;;;;;;33.48;28.83;100406.59;5071640;28;20036;-53
2023/10/11 11:47:04;;;;;;;12.47;4.10;;;;;;;33.30;28.56;100404.91;5071637;28;20046;-53
2023/10/11 11:49:33;;;;;;;12.65;4.68;;;;;;;33.75;28.67;100409.06;5071797;28;20040;-56
2023/10/11 11:51:59;;;;;;;12.13;3.92;;;;;;;33.57;28.63;100396.38;5071787;28;20076;-55
2023/10/11 11:54:28;;;;;;;11.80;3.73;;;;;;;33.01;28.77;100398.03;5071581;28;20029;-55
2023/10/11 11:56:55;;;;;;;10.38;3.80;;;;;;;33.04;28.43;100393.81;5071544;28;20082;-56
2023/10/11 11:59:21;;;;;;;;;;;;;;;32.61;29.06;100395.25;5072019;28;20547;-55
2023/10/11 12:01:49;;;;;;;;;;;;;;;32.80;28.51;100394.16;5071927;28;19919;-54
2023/10/11 12:04:24;;;;;;;13.23;4.63;;;;;;;32.87;28.82;100398.16;5071463;28;19962;-53
2023/10/11 12:06:50;;;;;;;16.20;4.50;;;;;;;32.67;29.82;100396.75;5071658;28;20054;-58
2023/10/11 12:09:21;;;;;;;11.10;4.20;;;;;;;33.26;28.83;100379.91;5071476;28;20483;-56
2023/10/11 12:11:53;;;;;;;9.90;3.95;;;;;;;33.51;28.56;100388.56;5071399;28;20037;-56
2023/10/11 12:14:22;;;;;;;10.80;4.05;;;;;;;33.46;28.28;100392.31;5071092;28;20043;-58
2023/10/11 12:16:48;;;;;;;10.25;3.95;;;;;;;33.93;28.07;100374.00;5071253;28;20028;-55
2023/10/11 12:19:15;;;;;;;12.45;4.75;;;;;;;34.16;28.21;100382.88;5071479;28;20094;-56
2023/10/11 12:21:41;;;;;;;9.15;3.75;;;;;;;34.06;28.01;100374.94;5068845;28;20426;-57
2023/10/11 12:24:12;;;;;;;10.07;3.90;;;;;;;33.97;28.12;100374.97;5062691;28;20035;-56
2023/10/11 12:26:42;;;;;;;14.82;4.03;;;;;;;34.51;27.89;100363.50;5071185;28;20043;-58
2023/10/11 12:29:14;;;;;;;12.65;3.88;;;;;;;34.45;27.44;100379.44;5071073;28;20414;-57
2023/10/11 12:31:41;;;;;;;10.93;4.18;;;;;;;34.23;27.86;100371.31;5070677;28;20025;-58
2023/10/11 12:34:09;;;;;;;14.95;4.53;;;;;;;34.51;26.69;100367.06;5067084;28;20515;-60
2023/10/11 12:36:41;;;;;;;11.52;4.03;;;;;;;34.61;26.51;100359.53;5067859;28;20044;-55
2023/10/11 12:39:08;;;;;;;14.55;3.72;;;;;;;34.23;26.87;100357.50;5070718;28;20503;-56
2023/10/11 12:41:37;;;;;;;13.25;4.78;;;;;;;34.38;27.37;100359.75;5070802;28;20445;-58
2023/10/11 12:44:07;;;;;;;12.40;4.25;;;;;;;34.29;27.70;100361.72;5072378;28;20029;-56
2023/10/11 12:46:33;;;;;;;9.85;3.72;;;;;;;34.09;27.50;100360.47;5074177;28;20453;-56
2023/10/11 12:49:00;;;;;;;11.00;3.97;;;;;;;33.64;27.33;100355.28;5073705;28;20107;-56
2023/10/11 12:51:26;;;;;;;12.45;4.68;;;;;;;34.22;27.00;100351.16;5069224;28;20043;-56
2023/10/11 12:53:57;;;;;;;10.47;4.40;;;;;;;34.19;27.30;100353.78;5073994;28;20032;-56
2023/10/11 12:56:24;;;;;;;12.85;4.07;;;;;;;33.81;28.07;100351.72;5074864;28;20032;-53
2023/10/11 12:58:52;;;;;;;10.13;4.00;;;;;;;33.58;27.62;100350.25;5074599;28;20051;-56
2023/10/11 13:01:26;;;;;;;13.80;4.47;;;;;;;33.31;28.12;100343.88;5074775;28;20035;-56
2023/10/11 13:04:06;;;;;;;10.15;3.78;;;;;;;33.65;27.86;100343.13;5073890;28;20086;-56
2023/10/11 13:06:37;;;;;;;10.85;3.97;;;;;;;33.29;27.97;100339.81;5072316;28;20043;-53
2023/10/11 13:09:15;;;;;;;11.35;4.50;;;;;;;33.13;28.33;100340.28;5054001;28;20033;-56
2023/10/11 13:11:47;;;;;;;14.60;4.40;;;;;;;32.75;28.79;100339.19;5070711;28;20085;-56
2023/10/11 13:14:20;;;;;;;13.75;4.07;;;;;;;32.18;29.43;100331.59;5073930;28;20058;-59
2023/10/11 13:16:51;;;;;;;16.27;4.72;;;;;;;31.43;30.34;100335.03;5051319;28;20395;-58
2023/10/11 13:19:20;;;;;;;11.00;4.53;;;;;;;31.45;30.04;100321.81;5073467;28;20480;-59
2023/10/11 13:21:49;;;;;;;12.60;4.28;;;;;;;31.16;31.07;100317.44;5074058;28;20021;-58
2023/10/11 13:24:21;;;;;;;11.43;4.63;;;;;;;30.83;32.00;100314.03;5071425;28;20055;-59
2023/10/11 13:26:47;;;;;;;15.02;5.53;;;;;;;30.45;32.55;100313.38;5074221;28;20043;-58
2023/10/11 13:29:18;;;;;;;10.00;4.43;;;;;;;29.93;32.38;100313.47;5074907;28;20099;-59
2023/10/11 13:31:48;;;;;;;11.52;4.13;;;;;;;29.47;33.27;100302.38;5071792;28;20046;-59
2023/10/11 13:34:16;;;;;;;17.40;5.13;;;;;;;29.62;34.41;100302.19;5062606;28;20044;-59
2023/10/11 13:36:42;;;;;;;10.88;4.28;;;;;;;29.11;34.21;100304.81;5072514;28;20043;-58
2023/10/11 13:39:26;;;;;;;16.65;5.85;;;;;;;28.89;35.21;100308.09;5073469;28;20044;-57
2023/10/11 13:42:03;;;;;;;8.80;4.30;;;;;;;28.79;34.96;100308.22;5071931;28;20040;-58
2023/10/11 13:44:28;;;;;;;13.43;4.03;;;;;;;28.60;34.88;100302.69;5072603;28;20483;-58
2023/10/11 13:46:58;;;;;;;14.55;4.45;;;;;;;28.60;35.24;100294.47;5072885;28;20078;-59
2023/10/11 13:49:26;;;;;;;16.27;4.93;;;;;;;28.32;35.75;100301.63;5073053;28;20082;-58
2023/10/11 13:51:52;;;;;;;11.68;4.25;;;;;;;28.35;35.46;100301.84;5071463;28;20119;-58
2023/10/11 13:54:31;;;;;;;15.60;3.92;;;;;;;28.13;35.61;100296.84;5071835;28;20048;-59
2023/10/11 13:57:10;;;;;;;12.32;4.25;;;;;;;28.09;35.74;100295.78;5072229;28;20036;-58
2023/10/11 13:59:37;;;;;;;16.83;5.30;;;;;;;28.03;36.01;100287.91;5071375;28;20043;-56
2023/10/11 14:02:33;;;;;;;;;;;;;;;28.03;36.53;100288.72;5071370;28;20032;-51
2023/10/11 14:04:56;;;;;;;15.32;4.38;;;;;;;27.91;35.96;100279.25;5071147;28;20361;-54
2023/10/11 14:07:25;;;;;;;11.38;4.40;;;;;;;27.94;37.04;100284.16;5070471;28;20490;-55
2023/10/11 14:09:54;;;;;;;14.45;4.95;;;;;;;27.75;36.56;100284.06;5071998;28;20662;-56
2023/10/11 14:12:32;;;;;;;8.77;4.72;;;;;;;27.74;36.07;100283.25;5071819;28;20048;-51
2023/10/11 14:14:58;;;;;;;14.23;4.50;;;;;;;27.58;36.89;100268.84;5069672;28;20032;-52
2023/10/11 14:17:26;;;;;;;12.60;4.53;;;;;;;27.65;36.66;100271.25;5080703;28;20487;-53
2023/10/11 14:19:55;;;;;;;13.40;3.97;;;;;;;27.61;37.57;100275.66;5070879;28;20042;-54
2023/10/11 14:22:21;;;;;;;14.40;4.40;;;;;;;27.42;36.86;100266.50;5068359;28;20037;-54
2023/10/11 14:24:48;;;;;;;11.45;4.07;;;;;;;27.38;37.28;100276.34;5071569;28;20422;-50
2023/10/11 14:27:17;;;;;;;13.52;4.30;;;;;;;27.33;37.16;100260.00;5072092;28;20078;-53
2023/10/11 14:29:47;;;;;;;9.80;4.20;;;;;;;27.25;38.99;100261.41;5072137;28;20039;-50
2023/10/11 14:32:16;;;;;;;11.90;4.07;;;;;;;27.22;38.48;100251.03;5071607;28;20036;-48
2023/10/11 14:34:45;;;;;;;12.45;4.45;;;;;;;27.17;38.84;100246.41;5070882;28;20032;-51
2023/10/11 14:37:13;;;;;;;10.25;3.88;;;;;;;27.07;37.35;100246.50;5069043;28;20032;-51
2023/10/11 14:39:47;;;;;;;13.40;4.40;;;;;;;26.90;38.19;100244.09;5071533;28;20028;-50
2023/10/11 14:42:16;;;;;;;12.73;4.07;;;;;;;26.94;37.83;100238.91;5069301;28;20043;-55
2023/10/11 14:44:44;;;;;;;13.15;4.38;;;;;;;26.82;37.64;100233.75;5070730;28;20070;-50
2023/10/11 14:47:13;;;;;;;12.70;4.68;;;;;;;26.77;38.45;100234.59;5068874;28;20119;-49
2023/10/11 14:49:39;;;;;;;9.02;4.20;;;;;;;26.76;38.13;100229.41;5071581;28;20422;-50
2023/10/11 14:52:07;;;;;;;13.93;4.20;;;;;;;26.72;39.01;100231.06;5070953;28;20063;-53
2023/10/11 14:54:39;;;;;;;15.73;4.40;;;;;;;26.71;40.52;100234.91;5070416;28;20040;-50
2023/10/11 14:57:05;;;;;;;11.70;4.68;;;;;;;26.64;40.81;100224.28;5070869;28;20398;-48
2023/10/11 14:59:34;;;;;;;12.93;4.35;;;;;;;26.63;38.99;100217.19;5071179;28;20027;-49
2023/10/11 15:02:02;;;;;;;10.65;4.35;;;;;;;26.63;39.07;100222.66;5071028;28;20029;-55
2023/10/11 15:04:28;;;;;;;7.75;3.90;;;;;;;26.58;38.67;100219.13;5070091;28;20390;-50
2023/10/11 15:06:53;;;;;;;11.10;4.20;;;;;;;26.58;40.89;100219.13;5070566;28;20041;-51
2023/10/11 15:09:18;;;;;;;8.77;4.15;;;;;;;26.51;42.28;100214.78;5070952;28;20024;-54
2023/10/11 15:11:45;;;;;;;10.55;4.55;;;;;;;26.37;40.45;100208.25;5070476;28;20067;-53
2023/10/11 15:14:11;;;;;;;;;;;;;;;26.41;39.98;100206.63;5070504;28;20028;-50
2023/10/11 15:16:37;;;;;;;15.47;4.73;;;;;;;26.35;40.23;100210.44;5070549;28;19958;-52
2023/10/11 15:19:03;;;;;;;11.32;4.50;;;;;;;26.33;39.87;100206.34;5069344;28;20028;-54
2023/10/11 15:21:29;;;;;;;11.80;4.18;;;;;;;26.29;40.11;100208.81;5067926;28;20106;-51
2023/10/11 15:23:55;;;;;;;12.23;4.57;;;;;;;26.22;39.74;100206.38;5069734;28;20487;-54
2023/10/11 15:26:21;;;;;;;8.80;3.95;;;;;;;26.24;40.24;100203.38;5070688;28;20052;-50
2023/10/11 15:28:48;;;;;;;8.57;4.53;;;;;;;26.19;40.42;100211.56;5070484;28;20045;-51
2023/10/11 15:31:16;;;;;;;13.20;4.70;;;;;;;26.17;39.82;100202.84;5071119;28;20041;-49
2023/10/11 15:33:42;;;;;;;8.60;4.20;;;;;;;26.12;39.95;100200.13;5070774;28;20132;-53
2023/10/11 15:36:08;;;;;;;10.00;4.68;;;;;;;26.08;41.22;100196.31;5071709;28;20119;-51
2023/10/11 15:38:34;;;;;;;11.88;4.32;;;;;;;25.98;40.72;100200.72;5071540;28;20036;-53
2023/10/11 15:41:01;;;;;;;13.27;4.53;;;;;;;25.96;40.98;100200.19;5071422;28;20009;-51
2023/10/11 15:43:27;;;;;;;;;;;;;;;25.92;41.34;100195.53;5071735;28;20507;-51
2023/10/11 15:45:52;;;;;;;14.57;5.00;;;;;;;25.81;42.46;100202.91;5071273;28;19977;-52
2023/10/11 15:48:20;;;;;;;13.70;4.13;;;;;;;25.80;40.95;100204.00;5071304;28;20047;-52
2023/10/11 15:50:45;;;;;;;12.50;5.68;;;;;;;25.77;41.16;100206.50;5071671;28;20032;-56
2023/10/11 15:53:13;;;;;;;15.85;5.78;;;;;;;25.73;41.60;100198.03;5071422;28;20072;-55
2023/10/11 15:55:40;;;;;;;10.73;4.00;;;;;;;25.65;41.88;100196.63;5071910;28;20032;-55
2023/10/11 15:58:07;;;;;;;9.52;5.32;;;;;;;25.59;42.04;100194.19;5070854;28;20036;-53
2023/10/11 16:00:33;;;;;;;13.32;4.38;;;;;;;25.54;41.93;100194.19;5072027;28;20032;-55
2023/10/11 16:03:01;;;;;;;12.20;4.80;;;;;;;25.44;42.48;100197.75;5071972;28;20093;-55
2023/10/11 16:05:28;;;;;;;13.25;4.72;;;;;;;25.40;42.82;100199.38;5072094;28;20040;-56
2023/10/11 16:07:53;;;;;;;11.48;4.93;;;;;;;25.34;43.01;100195.00;5071356;28;20053;-56
2023/10/11 16:10:19;;;;;;;10.98;5.40;;;;;;;25.28;43.44;100201.53;5071558;28;20024;-55
2023/10/11 16:12:45;;;;;;;11.48;5.10;;;;;;;25.19;43.79;100200.47;5071725;28;20487;-59
2023/10/11 16:15:12;;;;;;;10.20;4.35;;;;;;;25.11;44.40;100196.38;5071593;28;20036;-53
2023/10/11 16:17:38;;;;;;;13.88;5.72;;;;;;;25.03;44.33;100200.38;5071713;28;20120;-55
2023/10/11 16:20:05;;;;;;;10.90;4.70;;;;;;;24.94;45.28;100196.56;5071757;28;20111;-53
2023/10/11 16:22:41;;;;;;;17.20;5.45;;;;;;;24.73;46.59;100194.88;5071821;28;20283;-56
2023/10/11 16:25:07;;;;;;;14.80;5.82;;;;;;;24.46;47.42;100200.50;5071519;28;20070;-53
2023/10/11 16:27:42;;;;;;;11.60;5.03;;;;;;;24.20;49.03;100202.25;5071898;28;20396;-54
2023/10/11 16:30:09;;;;;;;14.25;4.85;;;;;;;24.06;50.08;100196.44;5071740;28;20081;-55
2023/10/11 16:32:35;;;;;;;13.77;4.38;;;;;;;23.71;51.36;100195.13;5070274;28;20040;-56
2023/10/11 16:35:02;;;;;;;12.98;4.78;;;;;;;23.52;52.37;100193.88;5071373;28;20487;-54
2023/10/11 16:37:28;;;;;;;;;;;;;;;23.43;53.08;100196.25;5071968;28;20036;-56
2023/10/11 16:39:53;;;;;;;13.30;5.07;;;;;;;23.27;53.81;100200.72;5071670;28;19927;-54
2023/10/11 16:42:19;;;;;;;11.98;4.15;;;;;;;23.12;55.72;100197.06;5071341;28;20245;-56
2023/10/11 16:44:46;;;;;;;13.15;4.40;;;;;;;22.85;57.49;100197.84;5070546;28;20036;-48